Time;durP1;ratioP1;P1;durP2;ratioP2;P2;SDS_P1;SDS_P2;PMS_P1;PMS_P2;Temp;Humidity;BMP_temperature;BMP_pressure;BME280_temperature;BME280_humidity;BME280_pressure;Samples;Min_cycle;Max_cycle;Signal;HPM_P1;HPM_P2
2023/10/06 00:01:44;;;;;;;5.63;3.00;;;11.90;99.90;;;;;;5056169;28;20123;-53
2023/10/06 00:04:13;;;;;;;;;;;11.90;99.90;;;;;;5056661;28;20033;-54
2023/10/06 00:06:42;;;;;;;5.68;2.28;;;12.00;99.90;;;;;;5056711;28;19954;-54
2023/10/06 00:09:33;;;;;;;7.30;2.33;;;11.90;99.90;;;;;;5055596;28;20164;-51
2023/10/06 00:11:59;;;;;;;6.33;2.73;;;11.90;99.90;;;;;;5056108;28;20049;-49
2023/10/06 00:14:43;;;;;;;7.30;3.00;;;11.90;99.90;;;;;;5056234;28;20029;-52
2023/10/06 00:17:13;;;;;;;6.43;2.33;;;11.90;99.90;;;;;;5056903;28;20043;-52
2023/10/06 00:19:39;;;;;;;8.60;2.87;;;11.90;99.90;;;;;;5057149;28;20102;-51
2023/10/06 00:22:17;;;;;;;7.40;2.70;;;11.90;99.90;;;;;;5056598;28;20454;-49
2023/10/06 00:24:47;;;;;;;6.55;2.58;;;11.90;99.90;;;;;;5056236;28;20111;-51
2023/10/06 00:27:13;;;;;;;8.83;3.07;;;11.90;99.90;;;;;;5056394;28;20025;-50
2023/10/06 00:29:54;;;;;;;5.13;2.73;;;11.80;99.90;;;;;;5056036;28;20053;-52
2023/10/06 00:32:26;;;;;;;10.23;3.20;;;11.80;99.90;;;;;;5071678;28;20073;-50
2023/10/06 00:35:15;;;;;;;7.03;2.63;;;11.80;99.90;;;;;;5071110;28;20349;-50
2023/10/06 00:37:41;;;;;;;8.77;2.93;;;11.80;99.90;;;;;;5056120;28;20399;-52
2023/10/06 00:40:19;;;;;;;6.47;2.70;;;11.70;99.90;;;;;;5056046;28;20098;-54
2023/10/06 00:42:56;;;;;;;6.50;2.60;;;11.70;99.90;;;;;;5037640;28;20486;-52
2023/10/06 00:45:25;;;;;;;13.53;3.40;;;11.70;99.90;;;;;;5054719;28;20513;-51
2023/10/06 00:47:53;;;;;;;13.60;4.43;;;11.70;99.90;;;;;;5056116;28;20025;-54
2023/10/06 00:50:24;;;;;;;9.80;3.47;;;11.70;99.90;;;;;;5071533;28;20071;-49
2023/10/06 00:52:50;;;;;;;12.93;4.23;;;11.70;99.90;;;;;;5054663;28;20041;-51
2023/10/06 00:55:19;;;;;;;9.87;2.93;;;11.60;99.90;;;;;;5071657;28;20025;-54
2023/10/06 00:57:53;;;;;;;7.10;2.83;;;11.60;99.90;;;;;;5037844;28;20032;-55
2023/10/06 01:00:24;;;;;;;6.20;2.37;;;11.60;99.90;;;;;;5054402;28;20024;-54
2023/10/06 01:02:50;;;;;;;5.73;2.53;;;11.60;99.90;;;;;;5055045;28;20395;-50
2023/10/06 01:05:16;;;;;;;7.83;3.00;;;11.60;99.90;;;;;;5055984;28;20039;-51
2023/10/06 01:07:45;;;;;;;7.77;2.63;;;11.60;99.90;;;;;;5070959;28;20064;-54
2023/10/06 01:10:17;;;;;;;5.60;2.22;;;11.60;99.90;;;;;;5054511;28;20047;-53
2023/10/06 01:12:50;;;;;;;4.67;2.13;;;11.60;99.90;;;;;;5055122;28;20036;-51
2023/10/06 01:15:19;;;;;;;5.47;2.40;;;11.60;99.90;;;;;;5055807;28;20029;-53
2023/10/06 01:17:48;;;;;;;6.23;2.37;;;11.60;99.90;;;;;;5054160;28;20068;-50
2023/10/06 01:20:33;;;;;;;7.75;3.10;;;11.60;99.90;;;;;;5070792;28;20435;-52
2023/10/06 01:23:00;;;;;;;9.60;3.83;;;11.60;99.90;;;;;;5053714;28;20044;-54
2023/10/06 01:25:26;;;;;;;7.13;3.27;;;11.60;99.90;;;;;;5055507;28;20036;-51
2023/10/06 01:27:52;;;;;;;8.40;2.83;;;11.60;99.90;;;;;;5070225;28;20516;-51
2023/10/06 01:30:18;;;;;;;10.63;2.63;;;11.60;99.90;;;;;;5053561;28;20124;-49
2023/10/06 01:32:45;;;;;;;5.17;2.07;;;11.60;99.90;;;;;;5054033;28;20036;-50
2023/10/06 01:35:12;;;;;;;8.53;2.33;;;11.50;99.90;;;;;;5055109;28;20485;-54
2023/10/06 01:37:59;;;;;;;8.20;2.67;;;11.50;99.90;;;;;;5054986;28;20380;-51
2023/10/06 01:42:51;;;;;;;7.60;2.60;;;11.60;99.90;;;;;;5055104;28;20032;-52
2023/10/06 01:45:21;;;;;;;9.07;2.63;;;11.50;99.90;;;;;;5070530;28;20033;-50
2023/10/06 01:47:55;;;;;;;4.97;2.00;;;11.50;99.90;;;;;;5053810;28;20025;-54
2023/10/06 01:50:28;;;;;;;6.83;2.70;;;11.60;99.90;;;;;;5054607;28;20033;-53
2023/10/06 01:52:55;;;;;;;7.57;2.50;;;11.70;99.90;;;;;;5069967;28;20028;-52
2023/10/06 01:55:24;;;;;;;6.53;2.50;;;11.70;99.90;;;;;;5055112;28;20029;-50
2023/10/06 01:57:54;;;;;;;6.20;2.70;;;11.70;99.90;;;;;;5053612;28;20028;-50
2023/10/06 02:00:31;;;;;;;5.43;2.20;;;11.70;99.90;;;;;;5053293;28;20110;-49
2023/10/06 02:02:57;;;;;;;7.63;2.47;;;11.70;99.90;;;;;;5054782;28;20037;-48
2023/10/06 02:05:22;;;;;;;6.27;2.70;;;11.80;99.90;;;;;;5054078;28;20029;-48
2023/10/06 02:07:48;;;;;;;6.77;2.43;;;11.80;99.90;;;;;;5053066;28;20036;-51
2023/10/06 02:10:15;;;;;;;5.67;2.27;;;11.80;99.90;;;;;;5053646;28;20162;-50
2023/10/06 02:12:42;;;;;;;5.33;2.30;;;11.90;99.90;;;;;;5053901;28;20044;-54
2023/10/06 02:15:10;;;;;;;6.00;2.67;;;11.90;99.90;;;;;;5053286;28;20036;-50
2023/10/06 02:17:40;;;;;;;9.20;2.42;;;11.90;99.90;;;;;;5054740;28;20041;-50
2023/10/06 02:20:49;;;;;;;9.43;2.60;;;11.90;99.90;;;;;;5054393;28;20033;-50
2023/10/06 02:23:00;;;;;;;9.97;3.03;;;11.90;99.90;;;;;;5044855;28;20041;-49
2023/10/06 02:25:27;;;;;;;7.03;2.37;;;11.90;99.90;;;;;;5069544;28;20161;-49
2023/10/06 02:27:53;;;;;;;7.37;2.60;;;11.90;99.90;;;;;;5053227;28;20025;-49
2023/10/06 02:30:40;;;;;;;7.47;2.70;;;11.90;99.90;;;;;;5052676;28;20119;-49
2023/10/06 02:33:06;;;;;;;5.90;2.60;;;11.90;99.90;;;;;;5070413;28;20035;-50
2023/10/06 02:35:35;;;;;;;5.30;2.43;;;11.90;99.90;;;;;;5053104;28;20111;-54
2023/10/06 02:38:05;;;;;;;;;;;12.00;99.90;;;;;;5053417;28;20033;-53
2023/10/06 02:40:38;;;;;;;5.37;2.10;;;12.00;99.90;;;;;;5052749;28;19909;-51
2023/10/06 02:43:06;;;;;;;4.63;2.50;;;12.00;99.90;;;;;;5052629;28;20029;-51
2023/10/06 02:45:37;;;;;;;7.03;2.42;;;11.90;99.90;;;;;;5069220;28;20083;-50
2023/10/06 02:48:14;;;;;;;9.50;3.00;;;11.90;99.90;;;;;;5052417;28;20147;-54
2023/10/06 02:50:44;;;;;;;6.57;2.50;;;11.90;99.90;;;;;;5068484;28;20162;-54
2023/10/06 02:53:13;;;;;;;7.07;2.57;;;12.00;99.90;;;;;;5052187;28;20029;-52
2023/10/06 02:55:43;;;;;;;6.32;2.90;;;12.00;99.90;;;;;;5051794;28;20473;-53
2023/10/06 02:58:10;;;;;;;4.77;2.63;;;12.00;99.90;;;;;;5066907;28;20048;-52
2023/10/06 03:00:36;;;;;;;7.30;2.70;;;12.00;99.90;;;;;;5051738;28;20029;-53
2023/10/06 03:03:21;;;;;;;7.17;2.60;;;11.90;99.90;;;;;;5051415;28;20033;-55
2023/10/06 03:05:51;;;;;;;9.20;2.63;;;11.90;99.90;;;;;;5051454;28;20036;-54
2023/10/06 03:08:20;;;;;;;;;;;12.00;99.90;;;;;;5052002;28;20025;-54
2023/10/06 03:10:48;;;;;;;4.60;2.80;;;11.90;99.90;;;;;;5068490;28;19951;-55
2023/10/06 03:13:33;;;;;;;4.80;2.60;;;11.90;99.90;;;;;;5067980;28;20673;-54
2023/10/06 03:16:00;;;;;;;6.07;2.70;;;11.90;99.90;;;;;;5035354;28;20037;-55
2023/10/06 03:18:26;;;;;;;6.37;2.83;;;11.90;99.90;;;;;;5051169;28;20033;-55
2023/10/06 03:20:59;;;;;;;6.50;2.45;;;11.80;99.90;;;;;;5051580;28;20132;-53
2023/10/06 03:23:38;;;;;;;6.20;2.40;;;11.70;99.90;;;;;;5067701;28;20036;-55
2023/10/06 03:26:11;;;;;;;;;;;11.70;99.90;;;;;;5052092;28;20493;-52
2023/10/06 03:28:37;;;;;;;3.80;1.97;;;11.70;99.90;;;;;;5052323;28;19990;-54
2023/10/06 03:33:49;;;;;;;7.67;2.50;;;11.60;99.90;;;;;;5051392;28;20027;-55
2023/10/06 03:36:26;;;;;;;10.27;2.60;;;11.60;99.90;;;;;;5067712;28;20031;-53
2023/10/06 03:38:55;;;;;;;4.77;2.53;;;11.60;99.90;;;;;;5051090;28;20052;-52
2023/10/06 03:41:31;;;;;;;9.87;2.77;;;11.50;99.90;;;;;;5050706;28;20075;-53
2023/10/06 03:44:03;;;;;;;7.17;3.10;;;11.70;99.90;;;;;;5067694;28;20029;-54
2023/10/06 03:46:36;;;;;;;4.93;2.40;;;11.70;99.90;;;;;;5051042;28;20029;-54
2023/10/06 03:49:05;;;;;;;7.93;2.73;;;11.70;99.90;;;;;;5052012;28;20040;-54
2023/10/06 03:51:37;;;;;;;6.13;2.50;;;11.80;99.90;;;;;;5050893;28;20029;-54
2023/10/06 03:54:04;;;;;;;9.90;2.50;;;11.80;99.90;;;;;;5067402;28;20041;-55
2023/10/06 03:56:33;;;;;;;10.23;2.80;;;11.80;99.90;;;;;;5052205;28;20017;-54
2023/10/06 03:59:12;;;;;;;8.05;2.60;;;11.80;99.90;;;;;;5051745;28;20060;-54
2023/10/06 04:01:38;;;;;;;10.52;3.30;;;11.80;99.90;;;;;;5051904;28;20112;-55
2023/10/06 04:04:04;;;;;;;8.10;2.80;;;11.80;99.90;;;;;;5052131;28;20460;-54
2023/10/06 04:06:34;;;;;;;7.13;2.57;;;11.80;99.90;;;;;;5052316;28;20044;-54
2023/10/06 04:09:00;;;;;;;7.50;2.80;;;11.80;99.90;;;;;;5051861;28;20436;-55
2023/10/06 04:11:34;;;;;;;9.57;2.80;;;11.80;99.90;;;;;;5054626;28;20021;-55
2023/10/06 04:13:59;;;;;;;8.13;2.70;;;11.80;99.90;;;;;;5056008;28;20040;-55
2023/10/06 04:16:25;;;;;;;8.30;2.93;;;11.80;99.90;;;;;;5055829;28;20029;-53
2023/10/06 04:18:51;;;;;;;5.23;2.20;;;11.80;99.90;;;;;;5055677;28;20397;-53
2023/10/06 04:21:17;;;;;;;7.57;2.40;;;11.80;99.90;;;;;;5071033;28;20033;-50
2023/10/06 04:23:43;;;;;;;5.83;2.33;;;11.80;99.90;;;;;;5055452;28;20021;-55
2023/10/06 04:26:10;;;;;;;4.67;2.43;;;11.90;99.90;;;;;;5055110;28;20112;-53
2023/10/06 04:28:37;;;;;;;6.17;2.60;;;11.80;99.90;;;;;;5055241;28;20032;-53
2023/10/06 04:31:05;;;;;;;7.30;2.73;;;11.80;99.90;;;;;;5055531;28;20040;-54
2023/10/06 04:33:31;;;;;;;6.83;3.27;;;11.90;99.90;;;;;;5055134;28;20028;-54
2023/10/06 04:36:12;;;;;;;6.17;2.50;;;11.90;99.90;;;;;;5055401;28;20045;-54
2023/10/06 04:38:40;;;;;;;6.50;2.33;;;11.90;99.90;;;;;;5055106;28;20382;-55
2023/10/06 04:41:08;;;;;;;6.57;2.43;;;11.80;99.90;;;;;;5055525;28;20424;-54
2023/10/06 04:43:39;;;;;;;4.87;2.27;;;11.90;99.90;;;;;;5055357;28;20068;-55
2023/10/06 04:46:09;;;;;;;6.70;2.20;;;11.80;99.90;;;;;;5055849;28;20040;-52
2023/10/06 04:48:35;;;;;;;6.53;2.90;;;11.80;99.90;;;;;;5054793;28;20025;-54
2023/10/06 04:51:05;;;;;;;8.37;2.93;;;11.80;99.90;;;;;;5055238;28;20283;-54
2023/10/06 04:53:38;;;;;;;10.97;4.70;;;11.90;99.90;;;;;;5053663;28;20032;-54
2023/10/06 04:56:09;;;;;;;17.93;6.93;;;11.80;99.90;;;;;;5055239;28;20064;-54
2023/10/06 04:58:42;;;;;;;7.13;2.80;;;11.90;99.90;;;;;;5054161;28;20033;-50
2023/10/06 05:01:07;;;;;;;8.60;2.90;;;11.80;99.90;;;;;;5055607;28;20047;-53
2023/10/06 05:03:45;;;;;;;4.20;2.27;;;11.90;99.90;;;;;;5054765;28;20029;-53
2023/10/06 05:06:20;;;;;;;7.43;2.53;;;11.80;99.90;;;;;;5055281;28;20037;-53
2023/10/06 05:08:47;;;;;;;5.47;2.23;;;11.80;99.90;;;;;;5055000;28;20370;-54
2023/10/06 05:11:23;;;;;;;7.13;2.77;;;11.80;99.90;;;;;;5055141;28;20037;-51
2023/10/06 05:13:55;;;;;;;8.52;2.63;;;11.80;99.90;;;;;;5054887;28;20099;-53
2023/10/06 05:16:22;;;;;;;6.00;2.23;;;11.80;99.90;;;;;;5054815;28;20779;-52
2023/10/06 05:18:48;;;;;;;8.13;2.60;;;11.80;99.90;;;;;;5054362;28;20493;-52
2023/10/06 05:21:15;;;;;;;9.30;3.23;;;11.80;99.90;;;;;;5055065;28;20074;-54
2023/10/06 05:23:41;;;;;;;7.97;2.30;;;11.90;99.90;;;;;;5054849;28;20069;-54
2023/10/06 05:26:10;;;;;;;8.13;2.50;;;11.80;99.90;;;;;;5054003;28;20037;-52
2023/10/06 05:28:37;;;;;;;7.70;2.63;;;11.80;99.90;;;;;;5053097;28;20053;-54
2023/10/06 05:31:04;;;;;;;6.90;2.50;;;11.80;99.90;;;;;;5054807;28;20044;-54
2023/10/06 05:33:30;;;;;;;5.80;2.20;;;11.90;99.90;;;;;;5069505;28;20040;-55
2023/10/06 05:35:55;;;;;;;6.83;2.63;;;11.90;99.90;;;;;;5053119;28;20029;-55
2023/10/06 05:38:21;;;;;;;5.73;2.87;;;11.90;99.90;;;;;;5054067;28;20420;-53
2023/10/06 05:40:48;;;;;;;5.70;2.40;;;11.80;99.90;;;;;;5053909;28;20061;-55
2023/10/06 05:43:17;;;;;;;9.77;2.90;;;11.80;99.90;;;;;;5053797;28;20452;-55
2023/10/06 05:45:43;;;;;;;5.57;2.55;;;11.80;99.90;;;;;;5054116;28;20025;-55
2023/10/06 05:48:10;;;;;;;6.77;2.50;;;11.80;99.90;;;;;;5053603;28;20029;-55
2023/10/06 05:50:36;;;;;;;7.00;2.67;;;11.80;99.90;;;;;;5053380;28;20048;-54
2023/10/06 05:53:12;;;;;;;5.33;2.27;;;11.80;99.90;;;;;;5053622;28;20025;-53
2023/10/06 05:55:41;;;;;;;6.43;2.30;;;11.80;99.90;;;;;;5054651;28;20084;-51
2023/10/06 05:58:14;;;;;;;7.47;2.83;;;11.80;99.90;;;;;;5054090;28;20108;-55
2023/10/06 06:01:05;;;;;;;5.10;2.50;;;11.80;99.90;;;;;;5053713;28;20039;-54
2023/10/06 06:03:30;;;;;;;8.37;2.60;;;11.80;99.90;;;;;;5053602;28;20068;-54
2023/10/06 06:06:08;;;;;;;6.20;2.37;;;11.80;99.90;;;;;;5053549;28;20056;-52
2023/10/06 06:08:39;;;;;;;7.17;2.80;;;11.80;99.90;;;;;;5053160;28;20481;-54
2023/10/06 06:11:05;;;;;;;7.20;3.27;;;11.80;99.90;;;;;;5053690;28;20040;-54
2023/10/06 06:13:33;;;;;;;7.90;2.73;;;11.80;99.90;;;;;;5053720;28;20025;-53
2023/10/06 06:15:59;;;;;;;6.63;2.67;;;11.80;99.90;;;;;;5054488;28;20040;-53
2023/10/06 06:18:27;;;;;;;5.40;2.50;;;11.80;99.90;;;;;;5054053;28;20071;-51
2023/10/06 06:20:53;;;;;;;5.43;2.50;;;11.80;99.90;;;;;;5054196;28;20123;-53
2023/10/06 06:23:20;;;;;;;7.17;2.80;;;11.90;99.90;;;;;;5054046;28;20555;-53
2023/10/06 06:25:46;;;;;;;7.17;2.50;;;11.90;99.90;;;;;;5054318;28;20468;-50
2023/10/06 06:28:12;;;;;;;8.47;2.53;;;11.90;99.90;;;;;;5052698;28;20033;-52
2023/10/06 06:30:39;;;;;;;6.57;2.87;;;12.00;99.90;;;;;;5053776;28;20059;-50
2023/10/06 06:33:09;;;;;;;7.15;2.97;;;12.00;99.90;;;;;;5052025;28;20029;-51
2023/10/06 06:35:35;;;;;;;5.75;2.75;;;12.10;99.90;;;;;;5053972;28;20044;-53
2023/10/06 06:38:05;;;;;;;16.17;7.40;;;12.20;99.90;;;;;;5053464;28;20033;-55
2023/10/06 06:40:32;;;;;;;7.80;3.27;;;12.20;99.90;;;;;;5053464;28;20028;-55
2023/10/06 06:43:01;;;;;;;8.52;2.63;;;12.30;99.90;;;;;;5053605;28;20112;-53
2023/10/06 06:45:28;;;;;;;8.95;2.75;;;12.40;99.90;;;;;;5052585;28;20033;-51
2023/10/06 06:47:54;;;;;;;5.22;2.70;;;12.40;99.90;;;;;;5053502;28;20033;-50
2023/10/06 06:50:21;;;;;;;8.25;3.03;;;12.50;99.90;;;;;;5053696;28;20388;-54
2023/10/06 06:52:54;;;;;;;6.22;2.67;;;12.50;99.90;;;;;;5053588;28;20083;-51
2023/10/06 06:55:21;;;;;;;7.57;2.97;;;12.50;99.90;;;;;;5053475;28;20401;-54
2023/10/06 06:57:50;;;;;;;6.25;2.75;;;12.60;99.90;;;;;;5053639;28;20040;-54
2023/10/06 07:00:21;;;;;;;5.85;2.42;;;12.70;99.90;;;;;;5053280;28;20068;-52
2023/10/06 07:02:50;;;;;;;6.13;2.53;;;12.80;99.90;;;;;;5053603;28;20065;-51
2023/10/06 07:05:17;;;;;;;4.20;2.30;;;12.80;99.90;;;;;;5053253;28;20128;-54
2023/10/06 07:07:43;;;;;;;5.10;2.20;;;12.90;99.90;;;;;;5053090;28;20025;-55
2023/10/06 07:10:14;;;;;;;7.35;3.15;;;13.00;99.90;;;;;;5053176;28;20540;-53
2023/10/06 07:12:44;;;;;;;8.70;2.47;;;13.00;99.90;;;;;;5053174;28;20021;-53
2023/10/06 07:15:17;;;;;;;11.15;3.20;;;13.00;99.90;;;;;;5052885;28;20036;-54
2023/10/06 07:17:48;;;;;;;10.32;3.83;;;13.10;99.90;;;;;;5052692;28;20074;-53
2023/10/06 07:20:16;;;;;;;6.93;2.55;;;13.10;99.90;;;;;;5053376;28;20595;-54
2023/10/06 07:22:46;;;;;;;5.93;2.58;;;13.10;99.90;;;;;;5052722;28;20060;-52
2023/10/06 07:25:15;;;;;;;5.40;2.30;;;13.10;99.90;;;;;;5052816;28;20029;-52
2023/10/06 07:28:07;;;;;;;4.80;2.20;;;13.10;99.90;;;;;;5052907;28;20033;-52
2023/10/06 07:30:34;;;;;;;8.90;2.55;;;13.20;99.90;;;;;;5050038;28;20044;-54
2023/10/06 07:33:02;;;;;;;7.25;2.70;;;13.20;99.90;;;;;;5052821;28;20110;-50
2023/10/06 07:35:51;;;;;;;10.68;2.78;;;13.20;99.90;;;;;;5052884;28;20104;-54
2023/10/06 07:38:18;;;;;;;5.57;2.30;;;13.20;99.90;;;;;;5053140;28;20422;-54
2023/10/06 07:40:44;;;;;;;7.70;3.17;;;13.40;99.90;;;;;;5053378;28;20036;-55
2023/10/06 07:43:10;;;;;;;4.57;2.25;;;13.40;99.90;;;;;;5053043;28;20037;-49
2023/10/06 07:45:36;;;;;;;8.13;2.45;;;13.50;99.90;;;;;;5054807;28;20036;-51
2023/10/06 07:48:05;;;;;;;8.95;2.97;;;13.50;99.90;;;;;;5056523;28;20416;-52
2023/10/06 07:50:33;;;;;;;6.47;2.47;;;13.60;99.90;;;;;;5056781;28;20047;-51
2023/10/06 07:53:00;;;;;;;8.50;3.05;;;13.70;99.90;;;;;;5056737;28;20112;-50
2023/10/06 07:55:26;;;;;;;6.57;2.28;;;13.80;99.90;;;;;;5056950;28;20041;-53
2023/10/06 07:57:52;;;;;;;6.22;2.25;;;13.80;99.90;;;;;;5056355;28;20028;-52
2023/10/06 08:00:29;;;;;;;7.10;2.35;;;13.80;99.90;;;;;;5056335;28;20112;-52
2023/10/06 08:02:56;;;;;;;6.47;2.45;;;13.90;99.90;;;;;;5056091;28;20037;-52
2023/10/06 08:05:23;;;;;;;4.90;1.80;;;13.90;99.90;;;;;;5057046;28;20032;-52
2023/10/06 08:07:49;;;;;;;5.50;2.03;;;13.90;99.90;;;;;;5056879;28;20039;-55
2023/10/06 08:10:16;;;;;;;8.88;2.70;;;14.00;99.90;;;;;;5055979;28;20052;-51
2023/10/06 08:12:46;;;;;;;9.80;3.00;;;14.20;99.90;;;;;;5055433;28;20032;-52
2023/10/06 08:15:17;;;;;;;4.72;2.13;;;14.30;99.90;;;;;;5055973;28;20064;-51
2023/10/06 08:17:47;;;;;;;11.30;2.30;;;14.30;99.90;;;;;;5056312;28;20075;-54
2023/10/06 08:20:15;;;;;;;7.03;1.95;;;14.40;99.90;;;;;;5056205;28;20025;-54
2023/10/06 08:22:46;;;;;;;6.70;1.77;;;14.60;99.90;;;;;;5056200;28;20033;-54
2023/10/06 08:25:14;;;;;;;4.75;2.28;;;14.70;99.90;;;;;;5056088;28;20033;-55
2023/10/06 08:27:41;;;;;;;4.60;1.35;;;14.90;99.90;;;;;;5056003;28;20040;-53
2023/10/06 08:30:18;;;;;;;5.38;1.77;;;15.10;99.90;;;;;;5055891;28;20037;-52
2023/10/06 08:32:44;;;;;;;6.63;2.17;;;15.10;99.90;;;;;;5055445;28;20166;-53
2023/10/06 08:35:14;;;;;;;7.80;1.65;;;15.20;99.90;;;;;;5056261;28;20029;-52
2023/10/06 08:38:01;;;;;;;7.97;1.98;;;15.40;99.90;;;;;;5056231;28;20114;-53
2023/10/06 08:40:30;;;;;;;5.28;1.77;;;15.50;99.90;;;;;;5055837;28;20044;-53
2023/10/06 08:42:56;;;;;;;7.18;2.22;;;15.60;99.90;;;;;;5055989;28;20040;-54
2023/10/06 08:45:24;;;;;;;10.93;3.47;;;15.70;99.90;;;;;;5055728;28;20039;-52
2023/10/06 08:48:01;;;;;;;6.10;2.72;;;15.90;99.90;;;;;;5055725;28;20056;-50
2023/10/06 08:50:31;;;;;;;4.68;1.83;;;16.00;99.90;;;;;;5056008;28;20385;-51
2023/10/06 08:52:59;;;;;;;5.10;1.77;;;16.10;99.90;;;;;;5057525;28;20029;-52
2023/10/06 08:55:27;;;;;;;5.70;1.85;;;16.20;99.90;;;;;;5056367;28;20029;-53
2023/10/06 08:57:53;;;;;;;5.63;1.90;;;16.30;99.90;;;;;;5055388;28;20036;-48
2023/10/06 09:00:26;;;;;;;7.65;1.90;;;16.40;99.90;;;;;;5055959;28;20049;-49
2023/10/06 09:02:55;;;;;;;7.88;2.70;;;16.50;99.90;;;;;;5055714;28;20033;-48
2023/10/06 09:05:21;;;;;;;8.00;2.67;;;16.50;99.90;;;;;;5055686;28;20037;-50
2023/10/06 09:08:07;;;;;;;8.63;2.88;;;16.70;99.90;;;;;;5055938;28;20085;-50
2023/10/06 09:10:35;;;;;;;9.63;2.70;;;16.80;99.90;;;;;;5056129;28;20746;-50
2023/10/06 09:13:12;;;;;;;9.38;2.85;;;16.90;99.90;;;;;;5055932;28;20096;-50
2023/10/06 09:15:43;;;;;;;10.23;2.30;;;17.10;99.90;;;;;;5055882;28;20040;-50
2023/10/06 09:18:27;;;;;;;4.68;1.75;;;17.30;99.90;;;;;;5056225;28;20048;-52
2023/10/06 09:20:54;;;;;;;8.52;2.17;;;17.40;99.90;;;;;;5056098;28;20036;-50
2023/10/06 09:23:36;;;;;;;6.65;2.35;;;17.70;99.90;;;;;;5055448;28;20087;-50
2023/10/06 09:26:07;;;;;;;7.53;2.08;;;17.90;99.90;;;;;;5055397;28;20435;-53
2023/10/06 09:28:33;;;;;;;4.18;1.63;;;18.10;99.90;;;;;;5055154;28;20029;-49
2023/10/06 09:31:01;;;;;;;6.60;2.60;;;18.20;99.90;;;;;;5055341;28;20481;-50
2023/10/06 09:33:31;;;;;;;5.82;2.65;;;18.40;99.90;;;;;;5055575;28;20420;-49
2023/10/06 09:36:21;;;;;;;8.77;3.50;;;18.90;99.90;;;;;;5055261;28;20033;-50
2023/10/06 09:38:47;;;;;;;8.02;2.90;;;19.80;99.90;;;;;;5054921;28;20045;-51
2023/10/06 09:41:28;;;;;;;8.32;2.38;;;21.00;99.90;;;;;;5055614;28;20029;-49
2023/10/06 09:43:58;;;;;;;7.22;2.20;;;22.10;99.90;;;;;;5055827;28;20037;-51
2023/10/06 09:46:25;;;;;;;8.32;2.40;;;22.80;99.90;;;;;;5055236;28;20043;-50
2023/10/06 09:48:52;;;;;;;7.63;1.90;;;23.30;99.10;;;;;;5054578;28;20389;-52
2023/10/06 09:51:23;;;;;;;5.03;2.05;;;24.20;97.50;;;;;;5054706;28;20048;-49
2023/10/06 09:53:50;;;;;;;8.18;2.10;;;24.60;95.90;;;;;;5055120;28;20385;-48
2023/10/06 09:56:17;;;;;;;8.90;2.08;;;25.00;95.30;;;;;;5054843;28;20060;-51
2023/10/06 09:58:54;;;;;;;7.53;2.10;;;25.20;94.50;;;;;;5054599;28;20098;-52
2023/10/06 10:01:25;;;;;;;7.35;2.30;;;24.30;95.20;;;;;;5054468;28;20036;-50
2023/10/06 10:03:56;;;;;;;5.80;2.08;;;23.20;96.50;;;;;;5055093;28;20028;-51
2023/10/06 10:06:22;;;;;;;3.97;1.80;;;22.40;97.70;;;;;;5054832;28;20033;-49
2023/10/06 10:08:51;;;;;;;7.20;2.00;;;22.00;98.90;;;;;;5054273;28;20029;-49
2023/10/06 10:11:39;;;;;;;5.50;2.05;;;21.50;99.40;;;;;;5054855;28;20478;-51
2023/10/06 10:14:31;;;;;;;9.00;2.08;;;21.00;99.90;;;;;;5054462;28;20079;-51
2023/10/06 10:17:06;;;;;;;8.52;2.22;;;20.40;99.90;;;;;;5052994;28;20120;-53
2023/10/06 10:19:33;;;;;;;9.88;2.53;;;20.40;99.90;;;;;;5053849;28;20037;-52
2023/10/06 10:21:59;;;;;;;7.60;2.42;;;20.30;99.90;;;;;;5069118;28;20064;-51
2023/10/06 10:24:25;;;;;;;6.05;2.00;;;20.60;99.90;;;;;;5054166;28;20036;-49
2023/10/06 10:26:53;;;;;;;8.35;3.50;;;21.00;99.90;;;;;;5054898;28;20040;-51
2023/10/06 10:29:18;;;;;;;8.90;3.33;;;21.20;99.90;;;;;;5054560;28;20028;-49
2023/10/06 10:31:46;;;;;;;6.70;2.50;;;21.40;99.90;;;;;;5053798;28;20660;-51
2023/10/06 10:34:20;;;;;;;8.02;2.53;;;21.10;99.90;;;;;;5053909;28;20033;-52
2023/10/06 10:37:06;;;;;;;6.50;2.17;;;20.60;99.90;;;;;;5054012;28;20025;-54
2023/10/06 10:39:52;;;;;;;6.35;1.98;;;20.50;99.90;;;;;;5042692;28;20044;-53
2023/10/06 10:42:38;;;;;;;7.53;1.95;;;20.30;99.90;;;;;;5053489;28;20104;-54
2023/10/06 10:45:38;;;;;;;7.57;2.50;;;20.10;99.90;;;;;;5053736;28;20033;-49
2023/10/06 10:48:13;;;;;;;4.95;1.80;;;20.00;99.90;;;;;;5068393;28;20025;-51
2023/10/06 10:51:00;;;;;;;6.32;1.73;;;20.00;99.90;;;;;;5053322;28;20083;-54
2023/10/06 10:53:41;;;;;;;8.45;2.40;;;20.00;99.90;;;;;;5053535;28;20040;-52
2023/10/06 10:56:30;;;;;;;3.92;1.45;;;19.90;99.90;;;;;;5053464;28;20029;-53
2023/10/06 10:58:57;;;;;;;3.58;1.52;;;19.80;99.90;;;;;;5053255;28;20033;-49
2023/10/06 11:01:23;;;;;;;6.40;1.65;;;19.70;99.90;;;;;;5053305;28;20039;-53
2023/10/06 11:04:18;;;;;;;5.30;1.45;;;19.60;99.90;;;;;;5053330;28;20473;-53
2023/10/06 11:06:45;;;;;;;5.50;1.90;;;19.60;99.90;;;;;;5053533;28;20433;-55
2023/10/06 11:12:05;;;;;;;4.10;1.75;;;20.00;99.90;;;;;;5053306;28;20061;-49
2023/10/06 11:14:37;;;;;;;4.18;1.92;;;20.40;99.90;;;;;;5053240;28;20307;-54
2023/10/06 11:17:05;;;;;;;9.02;2.47;;;20.70;99.90;;;;;;5053214;28;20385;-53
2023/10/06 11:19:37;;;;;;;5.30;1.70;;;20.70;99.90;;;;;;5054878;28;20055;-53
2023/10/06 11:22:22;;;;;;;4.97;2.08;;;20.70;99.90;;;;;;5058223;28;20037;-53
2023/10/06 11:24:51;;;;;;;7.07;1.65;;;20.70;99.90;;;;;;5057360;28;20037;-53
2023/10/06 11:27:21;;;;;;;4.90;1.88;;;20.80;99.90;;;;;;5057068;28;20033;-53
2023/10/06 11:29:57;;;;;;;7.20;2.15;;;20.60;99.90;;;;;;5057123;28;20028;-49
2023/10/06 11:32:24;;;;;;;5.97;1.60;;;20.60;99.90;;;;;;5057334;28;20033;-52
2023/10/06 11:34:50;;;;;;;6.80;2.05;;;20.50;99.90;;;;;;5057483;28;20043;-51
2023/10/06 11:37:18;;;;;;;7.18;2.10;;;20.50;99.90;;;;;;5072745;28;20108;-52
2023/10/06 11:39:45;;;;;;;7.87;2.30;;;20.70;99.90;;;;;;5055930;28;20041;-53
2023/10/06 11:42:29;;;;;;;6.47;2.13;;;20.90;99.90;;;;;;5057053;28;20044;-50
2023/10/06 11:44:57;;;;;;;7.18;2.40;;;21.00;99.90;;;;;;5057213;28;20375;-54
2023/10/06 11:47:26;;;;;;;6.90;2.00;;;21.30;99.90;;;;;;5057668;28;20075;-53
2023/10/06 11:49:55;;;;;;;9.32;2.22;;;21.70;99.90;;;;;;5056556;28;20021;-55
2023/10/06 11:52:20;;;;;;;;;;;21.60;99.90;;;;;;5057493;28;20021;-49
2023/10/06 11:54:46;;;;;;;5.13;1.92;;;21.70;99.90;;;;;;5057170;28;20277;-54
2023/10/06 11:57:16;;;;;;;5.03;1.70;;;22.00;99.70;;;;;;5057554;28;20502;-54
2023/10/06 11:59:53;;;;;;;7.80;2.30;;;22.30;99.40;;;;;;5057306;28;20037;-50
2023/10/06 12:02:21;;;;;;;5.05;2.00;;;22.20;99.50;;;;;;5057070;28;20036;-51
2023/10/06 12:04:48;;;;;;;8.85;2.95;;;22.00;99.80;;;;;;5055084;28;20124;-54
2023/10/06 12:07:23;;;;;;;4.13;1.90;;;21.60;99.90;;;;;;5055661;28;20029;-55
2023/10/06 12:09:49;;;;;;;8.32;2.58;;;21.20;99.90;;;;;;5056415;28;20100;-54
2023/10/06 12:12:18;;;;;;;7.70;2.20;;;21.30;99.90;;;;;;5056620;28;20080;-50
2023/10/06 12:14:45;;;;;;;8.77;2.53;;;21.40;99.90;;;;;;5056765;28;20068;-52
2023/10/06 12:17:15;;;;;;;9.70;3.28;;;21.60;99.90;;;;;;5056777;28;20063;-54
2023/10/06 12:19:43;;;;;;;5.75;2.58;;;21.80;99.90;;;;;;5056233;28;20554;-54
2023/10/06 12:22:09;;;;;;;8.85;3.08;;;22.00;99.90;;;;;;5056102;28;20040;-55
2023/10/06 12:24:34;;;;;;;13.32;4.47;;;22.10;99.90;;;;;;5056254;28;20029;-54
2023/10/06 12:27:00;;;;;;;7.18;2.70;;;22.00;99.90;;;;;;5055952;28;20508;-53
2023/10/06 12:29:28;;;;;;;12.73;5.82;;;21.70;99.90;;;;;;5056077;28;20504;-50
2023/10/06 12:31:56;;;;;;;10.27;2.50;;;21.60;99.90;;;;;;5054040;28;20035;-54
2023/10/06 12:34:22;;;;;;;8.82;4.10;;;21.60;99.90;;;;;;5055945;28;20035;-54
2023/10/06 12:36:48;;;;;;;13.88;4.57;;;21.50;99.90;;;;;;5056197;28;20040;-55
2023/10/06 12:39:30;;;;;;;8.40;2.75;;;21.40;99.90;;;;;;5055652;28;20388;-54
2023/10/06 12:41:57;;;;;;;8.15;3.78;;;21.00;99.90;;;;;;5055603;28;20026;-51
2023/10/06 12:44:27;;;;;;;10.55;4.78;;;20.60;99.90;;;;;;5055655;28;20067;-53
2023/10/06 12:46:55;;;;;;;10.35;4.97;;;20.50;99.90;;;;;;5055561;28;20036;-53
2023/10/06 12:49:23;;;;;;;7.80;3.15;;;20.50;99.90;;;;;;5055471;28;20401;-54
2023/10/06 12:51:49;;;;;;;5.82;2.40;;;20.60;99.90;;;;;;5055301;28;20040;-54
2023/10/06 12:54:14;;;;;;;7.32;2.92;;;20.60;99.90;;;;;;5054111;28;20397;-51
2023/10/06 12:56:44;;;;;;;7.00;2.40;;;20.60;99.90;;;;;;5055280;28;20032;-51
2023/10/06 12:59:13;;;;;;;6.65;2.58;;;20.50;99.90;;;;;;5055198;28;20033;-53
2023/10/06 13:01:39;;;;;;;5.13;2.50;;;20.40;99.90;;;;;;5054947;28;20470;-51
2023/10/06 13:04:08;;;;;;;12.40;4.55;;;20.40;99.90;;;;;;5055343;28;20121;-54
2023/10/06 13:06:33;;;;;;;8.63;2.45;;;20.50;99.90;;;;;;5055421;28;20040;-55
2023/10/06 13:09:08;;;;;;;5.85;2.00;;;21.00;99.90;;;;;;5055011;28;20029;-54
2023/10/06 13:11:34;;;;;;;7.90;2.75;;;21.60;99.90;;;;;;5055349;28;20398;-54
2023/10/06 13:14:03;;;;;;;7.68;3.28;;;22.30;99.90;;;;;;5055629;28;20032;-53